Time;durP1;ratioP1;P1;durP2;ratioP2;P2;SDS_P1;SDS_P2;PMS_P1;PMS_P2;Temp;Humidity;BMP_temperature;BMP_pressure;BME280_temperature;BME280_humidity;BME280_pressure;Samples;Min_cycle;Max_cycle;Signal;HPM_P1;HPM_P2
2022/11/18 00:00:54;;;;;;;14.82;8.27;;;6.70;99.90;;;;;;4247957;27;20043;-85
2022/11/18 00:02:56;;;;;;;12.73;7.82;;;6.70;99.90;;;;;;4247884;27;20775;-84
2022/11/18 00:04:57;;;;;;;13.52;7.70;;;6.60;99.90;;;;;;4248502;27;20049;-84
2022/11/18 00:06:57;;;;;;;12.75;7.10;;;6.70;99.90;;;;;;4248234;27;20118;-84
2022/11/18 00:09:00;;;;;;;12.43;7.22;;;6.70;99.90;;;;;;4243697;27;20078;-84
2022/11/18 00:11:11;;;;;;;14.27;7.78;;;6.70;99.90;;;;;;4248138;27;20065;-84
2022/11/18 00:15:32;;;;;;;13.18;7.57;;;6.70;99.90;;;;;;4248346;27;20122;-84
2022/11/18 00:17:32;;;;;;;12.60;7.43;;;6.70;99.90;;;;;;4229554;28;20051;-84
2022/11/18 00:19:38;;;;;;;11.70;7.15;;;6.70;99.90;;;;;;4229631;28;20506;-84
2022/11/18 00:21:40;;;;;;;13.43;6.90;;;6.70;99.90;;;;;;4247863;27;20062;-85
2022/11/18 00:23:41;;;;;;;16.85;7.78;;;6.70;99.90;;;;;;4247355;27;20841;-85
2022/11/18 00:25:42;;;;;;;12.50;7.40;;;6.60;99.90;;;;;;4245787;27;20054;-84
2022/11/18 00:27:42;;;;;;;13.45;7.78;;;6.60;99.90;;;;;;4229788;28;20055;-84
2022/11/18 00:29:43;;;;;;;11.10;7.20;;;6.60;99.90;;;;;;4213316;28;20110;-85
2022/11/18 00:31:45;;;;;;;11.07;6.25;;;6.60;99.90;;;;;;4212800;28;20124;-84
2022/11/18 00:33:46;;;;;;;12.00;6.40;;;6.60;99.90;;;;;;4212412;28;20048;-85
2022/11/18 00:35:53;;;;;;;11.07;6.35;;;6.60;99.90;;;;;;4248110;27;20047;-85
2022/11/18 00:37:53;;;;;;;13.13;6.97;;;6.70;99.90;;;;;;4212724;28;20063;-85
2022/11/18 00:39:54;;;;;;;12.02;6.93;;;6.60;99.90;;;;;;4213088;28;20134;-84
2022/11/18 00:44:14;;;;;;;12.15;6.97;;;6.60;99.90;;;;;;4243925;27;20052;-84
2022/11/18 00:46:15;;;;;;;11.57;6.93;;;6.70;99.90;;;;;;4218913;28;20526;-85
2022/11/18 00:48:20;;;;;;;14.43;7.05;;;6.60;99.90;;;;;;4248560;27;20039;-84
2022/11/18 00:50:21;;;;;;;12.02;6.20;;;6.60;99.90;;;;;;4230229;28;20491;-85
2022/11/18 00:52:22;;;;;;;12.00;6.43;;;6.60;99.90;;;;;;4207179;28;20052;-84
2022/11/18 00:54:23;;;;;;;12.63;7.03;;;6.60;99.90;;;;;;4231394;28;20043;-84
2022/11/18 00:56:24;;;;;;;13.40;6.47;;;6.50;99.90;;;;;;4246446;27;20047;-84
2022/11/18 00:58:26;;;;;;;17.15;7.35;;;6.80;99.90;;;;;;4230142;28;20509;-84
2022/11/18 01:00:26;;;;;;;16.50;8.15;;;6.60;99.90;;;;;;4248093;27;20046;-84
2022/11/18 01:02:27;;;;;;;15.63;7.88;;;6.60;99.90;;;;;;4230252;28;20043;-84
2022/11/18 01:04:28;;;;;;;14.95;8.15;;;6.60;99.90;;;;;;4220379;28;20050;-85
2022/11/18 01:06:29;;;;;;;14.48;7.65;;;6.60;99.90;;;;;;4248679;27;20540;-84
2022/11/18 01:08:30;;;;;;;15.35;7.03;;;6.60;99.90;;;;;;4230400;28;20058;-85
2022/11/18 01:10:31;;;;;;;14.15;7.05;;;6.50;99.90;;;;;;4248709;27;20039;-84
2022/11/18 01:14:51;;;;;;;;;;;6.50;99.90;;;;;;4249736;28;20043;-84
2022/11/18 01:16:56;;;;;;;13.30;7.28;;;6.50;99.90;;;;;;4233083;28;20341;-84
2022/11/18 01:18:57;;;;;;;11.77;6.85;;;6.50;99.90;;;;;;4252550;28;20032;-84
2022/11/18 01:21:02;;;;;;;14.18;7.93;;;6.50;99.90;;;;;;4235412;28;20051;-83
2022/11/18 01:23:03;;;;;;;15.27;8.25;;;6.50;99.90;;;;;;4234208;28;20591;-83
2022/11/18 01:25:04;;;;;;;14.50;7.82;;;6.50;99.90;;;;;;4252516;28;20047;-84
2022/11/18 01:27:05;;;;;;;15.25;7.35;;;6.50;99.90;;;;;;4243058;28;20046;-84
2022/11/18 01:29:07;;;;;;;15.80;8.13;;;6.50;99.90;;;;;;4244169;28;20452;-85
2022/11/18 01:31:14;;;;;;;18.63;8.65;;;6.50;99.90;;;;;;4247874;28;20071;-85
2022/11/18 01:33:16;;;;;;;16.30;8.32;;;6.50;99.90;;;;;;4229487;28;20089;-84
2022/11/18 01:35:23;;;;;;;13.70;7.05;;;6.50;99.90;;;;;;4225561;28;20051;-84
2022/11/18 01:37:24;;;;;;;17.50;7.60;;;6.50;99.90;;;;;;4208523;28;20103;-83
2022/11/18 01:39:25;;;;;;;16.63;7.22;;;6.50;99.90;;;;;;4233431;28;20127;-84
2022/11/18 01:41:26;;;;;;;16.67;8.85;;;6.50;99.90;;;;;;4233294;28;20441;-84
2022/11/18 01:43:52;;;;;;;15.15;7.82;;;6.50;99.90;;;;;;4216153;28;20044;-84
2022/11/18 01:45:53;;;;;;;14.88;7.55;;;6.50;99.90;;;;;;4251812;27;20479;-84
2022/11/18 01:47:58;;;;;;;14.93;7.65;;;6.50;99.90;;;;;;4232764;28;20122;-84
2022/11/18 01:50:00;;;;;;;14.40;7.05;;;6.50;99.90;;;;;;4232833;28;20487;-84
2022/11/18 01:52:02;;;;;;;13.50;7.35;;;6.50;99.90;;;;;;4251395;27;20054;-84
2022/11/18 01:54:11;;;;;;;15.10;7.95;;;6.40;99.90;;;;;;4251388;27;20096;-84
2022/11/18 01:56:23;;;;;;;14.27;7.90;;;6.40;99.90;;;;;;4206738;28;20054;-85
2022/11/18 01:58:35;;;;;;;15.35;7.22;;;6.40;99.90;;;;;;4221978;28;20134;-85
2022/11/18 02:00:36;;;;;;;14.55;7.22;;;6.40;99.90;;;;;;4232055;28;20043;-84
2022/11/18 02:02:37;;;;;;;14.02;6.85;;;6.60;99.90;;;;;;4232072;28;20050;-84
2022/11/18 02:04:42;;;;;;;16.45;7.63;;;6.40;99.90;;;;;;4250507;27;20498;-84
2022/11/18 02:06:45;;;;;;;15.85;6.93;;;6.40;99.90;;;;;;4233061;28;20043;-84
2022/11/18 02:08:48;;;;;;;14.48;6.88;;;6.80;99.90;;;;;;4251651;27;20490;-84
2022/11/18 02:10:49;;;;;;;14.52;6.68;;;6.40;99.90;;;;;;4251184;27;20422;-84
2022/11/18 02:12:52;;;;;;;13.95;7.00;;;6.40;99.90;;;;;;4238674;27;20059;-84
2022/11/18 02:14:53;;;;;;;15.50;6.63;;;6.40;99.90;;;;;;4250770;27;20038;-84
2022/11/18 02:17:31;;;;;;;15.75;7.43;;;6.40;99.90;;;;;;4232306;28;20040;-84
2022/11/18 02:19:43;;;;;;;19.27;7.43;;;6.40;99.90;;;;;;4232650;28;20044;-85
2022/11/18 02:22:02;;;;;;;12.13;6.40;;;6.40;99.90;;;;;;4232002;28;20052;-84
2022/11/18 02:24:25;;;;;;;16.25;7.22;;;6.40;99.90;;;;;;4250856;27;20051;-84
2022/11/18 02:26:56;;;;;;;14.38;7.15;;;6.40;99.90;;;;;;4250402;27;20045;-84
2022/11/18 02:29:00;;;;;;;15.50;7.18;;;6.40;99.90;;;;;;4224121;28;20048;-84
2022/11/18 02:31:09;;;;;;;14.60;6.82;;;6.50;99.90;;;;;;4247535;27;20376;-85
2022/11/18 02:33:31;;;;;;;;;;;6.40;99.90;;;;;;4251142;27;20118;-85
2022/11/18 02:35:42;;;;;;;14.20;7.13;;;6.40;99.90;;;;;;4231400;28;19920;-83
2022/11/18 02:38:01;;;;;;;18.35;7.70;;;6.40;99.90;;;;;;4232734;28;20056;-84
2022/11/18 02:40:14;;;;;;;;;;;6.40;99.90;;;;;;4251293;27;20390;-86
2022/11/18 02:42:16;;;;;;;18.23;7.65;;;6.40;99.90;;;;;;4251119;27;20014;-84
2022/11/18 02:44:19;;;;;;;18.40;8.02;;;6.40;99.90;;;;;;4233277;28;20043;-84
2022/11/18 02:46:32;;;;;;;19.98;7.32;;;6.40;99.90;;;;;;4215353;28;20061;-84
2022/11/18 02:48:38;;;;;;;17.10;8.35;;;6.40;99.90;;;;;;4232745;28;20081;-85
2022/11/18 02:50:41;;;;;;;16.77;8.48;;;6.30;99.90;;;;;;4233236;28;20051;-84
2022/11/18 02:52:45;;;;;;;21.67;8.20;;;6.60;99.90;;;;;;4250671;27;20532;-85
2022/11/18 02:54:48;;;;;;;18.98;8.50;;;6.30;99.90;;;;;;4232593;28;20048;-85
2022/11/18 02:56:51;;;;;;;19.23;9.07;;;6.30;99.90;;;;;;4232400;28;20051;-85
2022/11/18 02:58:52;;;;;;;18.42;8.65;;;6.30;99.90;;;;;;4231867;28;20048;-85
2022/11/18 03:00:58;;;;;;;16.70;7.75;;;6.30;99.90;;;;;;4215277;28;20564;-85
2022/11/18 03:02:59;;;;;;;18.92;8.77;;;6.30;99.90;;;;;;4250423;27;20043;-85
2022/11/18 03:05:00;;;;;;;16.20;7.93;;;6.60;99.90;;;;;;4201484;28;20066;-85
2022/11/18 03:07:24;;;;;;;16.63;7.63;;;6.20;99.90;;;;;;4201117;28;20044;-85
2022/11/18 03:09:25;;;;;;;19.25;8.50;;;6.20;99.90;;;;;;4232291;28;20085;-84
2022/11/18 03:11:32;;;;;;;15.27;7.72;;;6.70;99.90;;;;;;4250659;27;20507;-85
2022/11/18 03:13:46;;;;;;;17.67;8.38;;;6.20;99.90;;;;;;4213971;28;20113;-85
2022/11/18 03:16:05;;;;;;;18.55;8.73;;;6.20;99.90;;;;;;4235177;27;20460;-85
2022/11/18 03:18:45;;;;;;;20.58;8.82;;;6.20;99.90;;;;;;4232705;28;20047;-85
2022/11/18 03:21:00;;;;;;;17.52;8.60;;;6.10;99.90;;;;;;4226045;27;20043;-85
2022/11/18 03:23:10;;;;;;;22.17;8.07;;;6.10;99.90;;;;;;4242659;27;20039;-86
2022/11/18 03:25:15;;;;;;;21.60;8.82;;;6.10;99.90;;;;;;4237679;27;20043;-85
2022/11/18 03:27:30;;;;;;;17.45;7.90;;;6.10;99.90;;;;;;4250019;27;20055;-84
2022/11/18 03:29:37;;;;;;;19.88;8.30;;;6.10;99.90;;;;;;4231717;28;20070;-85
2022/11/18 03:31:46;;;;;;;17.13;8.27;;;6.10;99.90;;;;;;4231544;28;20126;-84
2022/11/18 03:33:56;;;;;;;13.82;7.10;;;6.10;99.90;;;;;;4231542;28;20048;-85
2022/11/18 03:36:01;;;;;;;19.15;8.43;;;6.10;99.90;;;;;;4250447;27;20047;-84
2022/11/18 03:38:11;;;;;;;19.70;9.95;;;6.20;99.90;;;;;;4231434;28;20047;-84
2022/11/18 03:40:23;;;;;;;16.25;8.25;;;6.10;99.90;;;;;;4250240;27;20047;-84
2022/11/18 03:42:34;;;;;;;16.30;8.15;;;6.10;99.90;;;;;;4244569;27;20107;-85
2022/11/18 03:44:39;;;;;;;19.20;8.55;;;6.10;99.90;;;;;;4231442;28;20099;-85
2022/11/18 03:47:05;;;;;;;17.48;9.27;;;6.10;99.90;;;;;;4223668;28;20055;-84
2022/11/18 03:49:09;;;;;;;17.85;7.32;;;6.10;99.90;;;;;;4228670;28;20127;-84
2022/11/18 03:51:14;;;;;;;14.05;7.68;;;6.10;99.90;;;;;;4199110;28;20074;-85
2022/11/18 03:53:17;;;;;;;16.55;7.40;;;6.10;99.90;;;;;;4249091;27;20092;-84
2022/11/18 03:55:34;;;;;;;17.88;7.97;;;6.50;99.90;;;;;;4236011;28;20052;-85
2022/11/18 03:57:40;;;;;;;16.52;7.90;;;6.10;99.90;;;;;;4235062;28;20040;-84
2022/11/18 03:59:53;;;;;;;21.50;8.65;;;6.10;99.90;;;;;;4234727;27;20112;-84
2022/11/18 04:02:12;;;;;;;17.63;8.23;;;6.10;99.90;;;;;;4231820;28;20142;-84
2022/11/18 04:04:13;;;;;;;17.77;7.80;;;6.10;99.90;;;;;;4239122;27;20043;-84
2022/11/18 04:06:35;;;;;;;17.38;7.90;;;6.10;99.90;;;;;;4216210;28;20084;-84
2022/11/18 04:08:40;;;;;;;17.02;8.27;;;6.10;99.90;;;;;;4251882;27;20055;-84
2022/11/18 04:11:07;;;;;;;17.25;8.85;;;6.10;99.90;;;;;;4232546;28;20097;-85
2022/11/18 04:13:16;;;;;;;17.48;8.45;;;6.10;99.90;;;;;;4225424;28;20086;-85
2022/11/18 04:15:18;;;;;;;;;;;6.00;99.90;;;;;;4204202;28;20108;-84
2022/11/18 04:17:22;;;;;;;17.48;7.97;;;6.10;99.90;;;;;;4213033;28;19971;-85
2022/11/18 04:19:23;;;;;;;15.80;7.88;;;6.10;99.90;;;;;;4196918;28;20048;-84
2022/11/18 04:21:26;;;;;;;19.45;8.68;;;6.10;99.90;;;;;;4197086;28;20059;-84
2022/11/18 04:23:28;;;;;;;16.92;9.27;;;6.10;99.90;;;;;;4196365;28;20416;-84
2022/11/18 04:25:29;;;;;;;18.27;8.93;;;6.10;99.90;;;;;;4205522;28;20051;-85
2022/11/18 04:27:29;;;;;;;15.25;8.10;;;6.00;99.90;;;;;;4214801;28;20431;-84
2022/11/18 04:29:31;;;;;;;21.60;7.82;;;6.30;99.90;;;;;;4213824;28;20048;-84
2022/11/18 04:31:32;;;;;;;17.08;8.60;;;6.10;99.90;;;;;;4214306;28;20048;-85
2022/11/18 04:33:33;;;;;;;15.52;8.30;;;6.00;99.90;;;;;;4209515;28;20389;-84
2022/11/18 04:35:34;;;;;;;15.38;7.85;;;6.10;99.90;;;;;;4196516;28;20036;-84
2022/11/18 04:37:34;;;;;;;14.55;8.10;;;6.00;99.90;;;;;;4186887;28;20052;-83
2022/11/18 04:39:35;;;;;;;17.13;7.88;;;6.00;99.90;;;;;;4179857;28;20057;-84
2022/11/18 04:41:54;;;;;;;20.25;8.75;;;6.00;99.90;;;;;;4213498;28;20044;-85
2022/11/18 04:43:55;;;;;;;16.17;7.85;;;6.00;99.90;;;;;;4214258;28;20044;-84
2022/11/18 04:45:56;;;;;;;17.05;8.88;;;6.00;99.90;;;;;;4213817;28;20035;-84
2022/11/18 04:47:57;;;;;;;17.02;7.60;;;6.00;99.90;;;;;;4214300;28;20047;-84
2022/11/18 04:49:57;;;;;;;13.98;7.40;;;6.00;99.90;;;;;;4212825;28;20399;-85
2022/11/18 04:51:59;;;;;;;15.73;7.50;;;6.00;99.90;;;;;;4193558;28;20151;-84
2022/11/18 04:54:00;;;;;;;16.17;7.57;;;6.20;99.90;;;;;;4197404;28;20055;-84
2022/11/18 04:56:05;;;;;;;17.85;7.10;;;6.00;99.90;;;;;;4207414;28;20155;-84
2022/11/18 04:58:06;;;;;;;18.52;7.43;;;6.00;99.90;;;;;;4199459;28;20052;-84
2022/11/18 05:00:07;;;;;;;13.10;7.03;;;6.00;99.90;;;;;;4212874;28;20059;-85
2022/11/18 05:02:08;;;;;;;13.90;6.53;;;6.00;99.90;;;;;;4212529;28;20075;-84
2022/11/18 05:04:12;;;;;;;13.73;6.55;;;6.00;99.90;;;;;;4195973;28;20123;-84
2022/11/18 05:06:14;;;;;;;13.77;7.00;;;6.00;99.90;;;;;;4213027;28;20477;-85
2022/11/18 05:08:15;;;;;;;13.60;6.60;;;6.00;99.90;;;;;;4209971;28;20365;-85
2022/11/18 05:10:16;;;;;;;12.55;7.07;;;5.90;99.90;;;;;;4207421;28;20093;-85
2022/11/18 05:14:38;;;;;;;14.23;6.90;;;5.90;99.90;;;;;;4203650;28;20054;-83
2022/11/18 05:16:39;;;;;;;14.18;6.47;;;5.90;99.90;;;;;;4207022;28;20392;-83
2022/11/18 05:18:41;;;;;;;16.48;6.13;;;5.90;99.90;;;;;;4213485;28;20077;-83
2022/11/18 05:20:42;;;;;;;12.13;5.55;;;6.00;99.90;;;;;;4214645;28;20044;-83
2022/11/18 05:22:42;;;;;;;14.30;6.57;;;5.90;99.90;;;;;;4213333;28;20044;-83
2022/11/18 05:24:43;;;;;;;14.13;6.55;;;5.90;99.90;;;;;;4213232;28;20047;-84
2022/11/18 05:26:44;;;;;;;13.77;7.30;;;5.90;99.90;;;;;;4210711;28;20453;-83
2022/11/18 05:28:45;;;;;;;15.73;6.00;;;6.00;99.90;;;;;;4213575;28;20434;-83
2022/11/18 05:30:45;;;;;;;14.77;6.85;;;5.90;99.90;;;;;;4214618;28;20503;-83
2022/11/18 05:32:46;;;;;;;17.20;6.60;;;5.90;99.90;;;;;;4214423;28;20062;-84
2022/11/18 05:34:47;;;;;;;11.02;6.78;;;5.90;99.90;;;;;;4208813;28;20527;-84
2022/11/18 05:36:48;;;;;;;12.60;6.72;;;5.90;99.90;;;;;;4205272;28;20560;-84
2022/11/18 05:38:49;;;;;;;16.00;6.25;;;5.90;99.90;;;;;;4213013;28;20052;-84
2022/11/18 05:40:50;;;;;;;19.50;6.47;;;5.90;99.90;;;;;;4204866;28;20053;-84
2022/11/18 05:45:10;;;;;;;15.63;6.75;;;5.90;99.90;;;;;;4214178;28;20495;-84
2022/11/18 05:47:11;;;;;;;16.52;6.50;;;5.90;99.90;;;;;;4214001;28;20036;-84
2022/11/18 05:49:12;;;;;;;16.35;6.85;;;5.90;99.90;;;;;;4213857;28;20415;-85
2022/11/18 05:51:15;;;;;;;15.15;6.95;;;5.80;99.90;;;;;;4196368;28;20128;-85
2022/11/18 05:53:17;;;;;;;14.02;6.40;;;5.80;99.90;;;;;;4213210;28;20044;-85
2022/11/18 05:55:21;;;;;;;14.80;6.57;;;5.80;99.90;;;;;;4216467;28;20100;-86
2022/11/18 05:57:21;;;;;;;15.27;6.22;;;6.00;99.90;;;;;;4213191;28;20549;-85
2022/11/18 05:59:22;;;;;;;16.95;6.60;;;5.80;99.90;;;;;;4207988;28;20036;-85
2022/11/18 06:01:38;;;;;;;14.95;6.30;;;5.80;99.90;;;;;;4203114;28;20093;-85
2022/11/18 06:03:40;;;;;;;17.35;6.47;;;5.80;99.90;;;;;;4213565;28;20043;-84
2022/11/18 06:05:40;;;;;;;14.93;6.57;;;5.80;99.90;;;;;;4213552;28;20101;-85
2022/11/18 06:07:43;;;;;;;16.25;6.90;;;5.80;99.90;;;;;;4212045;28;20052;-85
2022/11/18 06:09:47;;;;;;;16.80;6.55;;;5.80;99.90;;;;;;4214868;28;20055;-84
2022/11/18 06:11:53;;;;;;;17.02;7.03;;;5.80;99.90;;;;;;4212214;28;20056;-84
2022/11/18 06:14:05;;;;;;;17.40;6.63;;;5.80;99.90;;;;;;4236016;28;20449;-84
2022/11/18 06:16:07;;;;;;;13.70;6.43;;;5.80;99.90;;;;;;4229253;28;20035;-84
2022/11/18 06:18:19;;;;;;;19.75;6.28;;;6.00;99.90;;;;;;4246894;28;20039;-84
2022/11/18 06:20:20;;;;;;;18.60;6.13;;;5.80;99.90;;;;;;4228522;28;20055;-84
2022/11/18 06:22:21;;;;;;;13.85;6.43;;;5.80;99.90;;;;;;4229346;28;20043;-84
2022/11/18 06:24:23;;;;;;;15.95;6.80;;;5.80;99.90;;;;;;4249986;27;20043;-84
2022/11/18 06:26:24;;;;;;;16.55;7.13;;;5.80;99.90;;;;;;4231725;28;20047;-85
2022/11/18 06:28:27;;;;;;;14.35;6.10;;;5.80;99.90;;;;;;4215128;28;20091;-85
2022/11/18 06:30:28;;;;;;;16.35;6.72;;;5.90;99.90;;;;;;4215841;28;20127;-85
2022/11/18 06:32:29;;;;;;;15.88;7.00;;;5.80;99.90;;;;;;4214241;28;20036;-85
2022/11/18 06:34:31;;;;;;;19.48;6.88;;;5.80;99.90;;;;;;4215491;28;20071;-84
2022/11/18 06:36:31;;;;;;;17.48;8.02;;;5.80;99.90;;;;;;4215663;28;20097;-84
2022/11/18 06:38:32;;;;;;;16.55;6.43;;;5.80;99.90;;;;;;4232297;28;20051;-85
2022/11/18 06:40:34;;;;;;;17.88;7.07;;;5.80;99.90;;;;;;4250545;27;20134;-84
2022/11/18 06:44:53;;;;;;;;;;;5.80;99.90;;;;;;4250783;27;20495;-85
2022/11/18 06:46:54;;;;;;;19.25;8.13;;;5.80;99.90;;;;;;4232410;28;19920;-84
2022/11/18 06:48:55;;;;;;;19.65;8.07;;;5.80;99.90;;;;;;4226746;28;20040;-84
2022/11/18 06:50:56;;;;;;;17.88;7.85;;;5.80;99.90;;;;;;4251868;27;20039;-83
2022/11/18 06:52:59;;;;;;;23.27;9.05;;;5.80;99.90;;;;;;4249910;27;20047;-83
2022/11/18 06:55:00;;;;;;;22.52;9.13;;;5.80;99.90;;;;;;4233123;28;20064;-85
2022/11/18 06:57:01;;;;;;;24.35;9.98;;;5.70;99.90;;;;;;4233003;28;20411;-84
2022/11/18 06:59:03;;;;;;;22.08;10.35;;;5.70;99.90;;;;;;4250878;27;20092;-84
2022/11/18 07:01:11;;;;;;;25.63;9.75;;;5.70;99.90;;;;;;4216027;28;20154;-85
2022/11/18 07:03:11;;;;;;;31.50;11.50;;;5.70;99.90;;;;;;4231390;28;20126;-84
2022/11/18 07:05:12;;;;;;;23.95;9.32;;;5.70;99.90;;;;;;4215865;28;20044;-83
2022/11/18 07:07:15;;;;;;;23.05;10.10;;;5.70;99.90;;;;;;4230524;28;20082;-82
2022/11/18 07:09:16;;;;;;;22.75;9.98;;;5.80;99.90;;;;;;4234579;28;20042;-85
2022/11/18 07:11:19;;;;;;;26.00;9.88;;;5.60;99.90;;;;;;4229553;28;20043;-84
2022/11/18 07:13:20;;;;;;;22.45;10.45;;;6.00;99.90;;;;;;4250381;27;20073;-85
2022/11/18 07:15:22;;;;;;;28.02;10.23;;;5.60;99.90;;;;;;4234096;28;20104;-86
2022/11/18 07:17:23;;;;;;;29.75;9.93;;;5.60;99.90;;;;;;4216364;28;20044;-85
2022/11/18 07:19:24;;;;;;;24.77;10.90;;;5.60;99.90;;;;;;4251304;27;20483;-84
2022/11/18 07:21:27;;;;;;;31.20;11.55;;;5.60;99.90;;;;;;4215967;28;20103;-84
2022/11/18 07:23:30;;;;;;;25.15;10.07;;;5.70;99.90;;;;;;4251277;27;20126;-84
2022/11/18 07:25:30;;;;;;;25.38;9.95;;;5.60;99.90;;;;;;4216938;28;20051;-84
2022/11/18 07:27:31;;;;;;;25.58;10.60;;;6.00;99.90;;;;;;4251323;27;20439;-84
2022/11/18 07:29:32;;;;;;;23.52;9.48;;;5.60;99.90;;;;;;4241428;27;20395;-84
2022/11/18 07:31:36;;;;;;;20.65;9.98;;;5.90;99.90;;;;;;4246886;27;20447;-84
2022/11/18 07:33:38;;;;;;;26.60;8.95;;;5.60;99.90;;;;;;4248366;27;20092;-84
2022/11/18 07:35:38;;;;;;;23.63;8.85;;;5.60;99.90;;;;;;4249465;27;20082;-84
2022/11/18 07:37:40;;;;;;;21.30;9.13;;;6.00;99.90;;;;;;4231348;28;20040;-84
2022/11/18 07:39:41;;;;;;;22.00;8.30;;;5.60;99.90;;;;;;4231590;28;20043;-84
2022/11/18 07:41:42;;;;;;;20.52;9.10;;;5.60;99.90;;;;;;4249428;27;20043;-83
2022/11/18 07:43:43;;;;;;;19.95;7.22;;;5.60;99.90;;;;;;4249210;27;20107;-84
2022/11/18 07:45:43;;;;;;;16.48;7.78;;;5.60;99.90;;;;;;4248276;27;20489;-83
2022/11/18 07:47:44;;;;;;;26.20;8.63;;;5.50;99.90;;;;;;4223738;28;20100;-84
2022/11/18 07:49:45;;;;;;;19.05;8.60;;;5.50;99.90;;;;;;4244338;27;20046;-84
2022/11/18 07:51:46;;;;;;;22.45;7.85;;;5.50;99.90;;;;;;4209109;28;20048;-84
2022/11/18 07:53:47;;;;;;;18.33;7.60;;;5.50;99.90;;;;;;4209971;28;20139;-84
2022/11/18 07:55:48;;;;;;;20.50;8.45;;;5.50;99.90;;;;;;4214460;28;20052;-85
2022/11/18 07:57:49;;;;;;;22.80;8.18;;;5.50;99.90;;;;;;4216776;28;20058;-84
2022/11/18 07:59:50;;;;;;;20.73;7.53;;;5.50;99.90;;;;;;4249012;27;20071;-85
2022/11/18 08:01:51;;;;;;;19.90;8.30;;;5.50;99.90;;;;;;4250979;27;20096;-85
2022/11/18 08:03:52;;;;;;;20.45;8.95;;;5.50;99.90;;;;;;4244614;27;20043;-86
2022/11/18 08:05:58;;;;;;;20.27;9.20;;;5.50;99.90;;;;;;4215779;28;20552;-84
2022/11/18 08:07:59;;;;;;;20.60;8.32;;;5.50;99.90;;;;;;4219396;28;20043;-86
2022/11/18 08:10:02;;;;;;;18.77;8.25;;;5.50;99.90;;;;;;4227062;28;20058;-85
2022/11/18 08:12:03;;;;;;;22.35;9.15;;;5.50;99.90;;;;;;4232392;28;20507;-86
2022/11/18 08:14:04;;;;;;;23.65;8.80;;;5.50;99.90;;;;;;4214184;28;20056;-86
2022/11/18 08:16:13;;;;;;;31.98;10.68;;;5.50;99.90;;;;;;4200394;28;20078;-85
2022/11/18 08:18:13;;;;;;;;;;;5.50;99.90;;;;;;4227741;28;20051;-85
2022/11/18 08:20:14;;;;;;;20.65;7.85;;;5.50;99.90;;;;;;4232944;28;19916;-85
2022/11/18 08:22:19;;;;;;;19.60;8.98;;;5.50;99.90;;;;;;4234252;28;20039;-86
2022/11/18 08:24:20;;;;;;;22.02;9.45;;;5.70;99.90;;;;;;4241948;27;20066;-86
2022/11/18 08:26:23;;;;;;;19.33;9.07;;;5.50;99.90;;;;;;4235188;27;20039;-85
2022/11/18 08:28:24;;;;;;;19.67;8.18;;;6.10;99.90;;;;;;4223539;28;20056;-86
2022/11/18 08:30:25;;;;;;;22.95;8.90;;;5.50;99.90;;;;;;4233431;28;20091;-86
2022/11/18 08:32:27;;;;;;;20.92;8.23;;;5.50;99.90;;;;;;4234280;28;20070;-85
2022/11/18 08:34:29;;;;;;;18.35;7.97;;;5.50;99.90;;;;;;4233084;28;20062;-85
2022/11/18 08:36:34;;;;;;;22.33;8.13;;;5.50;99.90;;;;;;4249961;27;20039;-85
2022/11/18 08:38:35;;;;;;;16.83;7.63;;;5.50;99.90;;;;;;4214688;28;20052;-86
2022/11/18 08:40:35;;;;;;;19.05;8.10;;;5.50;99.90;;;;;;4230969;28;20092;-85
2022/11/18 08:42:37;;;;;;;16.27;7.32;;;5.50;99.90;;;;;;4213893;28;20551;-86
2022/11/18 08:44:38;;;;;;;18.15;7.57;;;6.00;99.90;;;;;;4227768;28;20090;-84
2022/11/18 08:46:39;;;;;;;21.75;8.13;;;5.50;99.90;;;;;;4247410;27;20039;-85
2022/11/18 08:48:40;;;;;;;16.23;8.07;;;5.70;99.90;;;;;;4246877;27;20113;-85
2022/11/18 08:50:40;;;;;;;15.63;7.43;;;4.70;99.90;;;;;;4230430;28;20044;-85
2022/11/18 08:52:42;;;;;;;21.67;7.63;;;5.50;99.90;;;;;;4228836;28;20055;-85
2022/11/18 08:54:44;;;;;;;17.10;7.88;;;5.50;99.90;;;;;;4248342;27;20043;-85
2022/11/18 08:56:44;;;;;;;25.98;8.25;;;5.50;99.90;;;;;;4246802;27;20070;-85
2022/11/18 08:58:46;;;;;;;27.55;10.38;;;5.50;99.90;;;;;;4229722;28;20051;-86
2022/11/18 09:00:46;;;;;;;22.73;8.75;;;5.50;99.90;;;;;;4228348;28;20051;-85
2022/11/18 09:02:48;;;;;;;18.35;8.43;;;5.50;99.90;;;;;;4230024;28;20491;-86
2022/11/18 09:04:50;;;;;;;22.58;7.68;;;5.50;99.90;;;;;;4211470;28;20127;-85
2022/11/18 09:06:51;;;;;;;18.10;7.53;;;5.50;99.90;;;;;;4229672;28;20416;-85
2022/11/18 09:08:53;;;;;;;18.83;8.10;;;5.50;99.90;;;;;;4229095;28;20105;-86
2022/11/18 09:10:55;;;;;;;19.50;7.32;;;5.40;99.90;;;;;;4241461;27;20047;-85
2022/11/18 09:12:56;;;;;;;23.23;8.80;;;5.50;99.90;;;;;;4233209;28;20074;-85
2022/11/18 09:14:56;;;;;;;17.10;7.43;;;5.40;99.90;;;;;;4225257;28;20044;-86
2022/11/18 09:16:57;;;;;;;16.65;7.75;;;5.70;99.90;;;;;;4203196;28;20108;-85
2022/11/18 09:18:58;;;;;;;18.58;8.65;;;5.40;99.90;;;;;;4212801;28;20615;-86
2022/11/18 09:21:03;;;;;;;23.75;8.25;;;5.60;99.90;;;;;;4196153;28;20056;-86
2022/11/18 09:23:04;;;;;;;19.60;8.30;;;5.40;99.90;;;;;;4194916;28;20507;-86
2022/11/18 09:25:06;;;;;;;17.05;8.27;;;5.40;99.90;;;;;;4213248;28;20056;-86
2022/11/18 09:27:08;;;;;;;15.13;6.95;;;5.40;99.90;;;;;;4196248;28;20060;-86
2022/11/18 09:29:10;;;;;;;17.65;8.13;;;5.90;99.90;;;;;;4213252;28;20443;-86
2022/11/18 09:31:15;;;;;;;13.02;6.25;;;5.40;99.90;;;;;;4211281;28;20052;-85
2022/11/18 09:33:16;;;;;;;18.67;6.47;;;5.40;99.90;;;;;;4215717;28;20070;-85
2022/11/18 09:35:18;;;;;;;17.15;7.22;;;5.40;99.90;;;;;;4212366;28;20047;-85
2022/11/18 09:37:19;;;;;;;17.42;8.02;;;5.40;99.90;;;;;;4217945;28;20047;-85
2022/11/18 09:39:19;;;;;;;13.48;6.53;;;5.40;99.90;;;;;;4203948;28;20048;-85
2022/11/18 09:41:38;;;;;;;15.25;6.88;;;5.40;99.90;;;;;;4220372;28;20116;-85
2022/11/18 09:44:06;;;;;;;15.77;7.25;;;5.40;99.90;;;;;;4221354;28;20123;-85
2022/11/18 09:46:27;;;;;;;15.65;6.15;;;5.40;99.90;;;;;;4219863;28;20084;-85
2022/11/18 09:50:49;;;;;;;15.00;6.03;;;5.40;99.90;;;;;;4214477;28;20056;-85
2022/11/18 09:53:08;;;;;;;13.73;6.25;;;5.40;99.90;;;;;;4213746;28;20056;-85
2022/11/18 09:55:15;;;;;;;13.85;6.65;;;5.40;99.90;;;;;;4213834;28;20576;-85
2022/11/18 09:57:21;;;;;;;11.98;6.20;;;5.40;99.90;;;;;;4214589;28;20123;-85
2022/11/18 09:59:32;;;;;;;13.80;6.40;;;5.80;99.90;;;;;;4219459;28;20052;-85
2022/11/18 10:01:35;;;;;;;16.35;6.68;;;5.50;99.90;;;;;;4221691;28;20123;-85
2022/11/18 10:03:38;;;;;;;13.43;5.60;;;5.40;99.90;;;;;;4219882;28;20066;-86
2022/11/18 10:05:41;;;;;;;14.05;5.90;;;5.50;99.90;;;;;;4222814;28;20112;-85
2022/11/18 10:08:09;;;;;;;15.85;6.13;;;5.40;99.90;;;;;;4221991;28;20044;-85
2022/11/18 10:10:18;;;;;;;14.57;6.10;;;5.40;99.90;;;;;;4211749;28;20169;-85
2022/11/18 10:12:22;;;;;;;15.82;6.97;;;5.40;99.90;;;;;;4221836;28;20044;-85
2022/11/18 10:14:42;;;;;;;18.48;7.25;;;5.40;99.90;;;;;;4219333;28;20048;-86
2022/11/18 10:16:56;;;;;;;14.93;5.72;;;5.30;99.90;;;;;;4227583;28;20039;-85
2022/11/18 10:19:20;;;;;;;18.45;6.53;;;5.30;99.90;;;;;;4233042;28;20047;-85
2022/11/18 10:21:36;;;;;;;18.20;7.65;;;5.20;99.90;;;;;;4229134;28;20096;-85
2022/11/18 10:24:02;;;;;;;15.77;7.13;;;5.20;99.90;;;;;;4232137;28;20051;-84
2022/11/18 10:26:03;;;;;;;17.00;6.55;;;5.20;99.90;;;;;;4230048;28;20055;-85
2022/11/18 10:28:28;;;;;;;16.77;7.38;;;5.20;99.90;;;;;;4215554;28;20165;-85
2022/11/18 10:30:30;;;;;;;19.30;8.50;;;5.10;99.90;;;;;;4232787;28;20451;-85
2022/11/18 10:32:31;;;;;;;17.00;7.03;;;5.10;99.90;;;;;;4232443;28;20126;-85
2022/11/18 10:34:44;;;;;;;20.30;8.20;;;5.10;99.90;;;;;;4230984;28;20044;-85
2022/11/18 10:37:03;;;;;;;18.38;7.13;;;5.10;99.90;;;;;;4233785;28;20047;-85
2022/11/18 10:39:15;;;;;;;18.15;7.78;;;5.10;99.90;;;;;;4233619;28;20051;-85
2022/11/18 10:41:20;;;;;;;20.17;7.85;;;5.00;99.90;;;;;;4230591;28;20047;-85
2022/11/18 10:43:47;;;;;;;16.63;7.47;;;5.00;99.90;;;;;;4209417;28;20517;-85
2022/11/18 10:45:49;;;;;;;15.93;7.00;;;5.00;99.90;;;;;;4221001;28;20051;-85
2022/11/18 10:47:58;;;;;;;18.38;8.10;;;5.00;99.90;;;;;;4231699;28;20097;-85
2022/11/18 10:50:00;;;;;;;;;;;5.00;99.90;;;;;;4230900;28;20102;-85
2022/11/18 10:52:10;;;;;;;18.77;5.55;;;5.00;99.90;;;;;;4232673;28;19926;-85
2022/11/18 10:54:18;;;;;;;19.10;7.15;;;4.90;99.90;;;;;;4230295;28;20055;-85
2022/11/18 10:56:21;;;;;;;19.63;9.05;;;4.90;99.90;;;;;;4231655;28;20048;-86
2022/11/18 10:58:24;;;;;;;20.75;8.10;;;4.90;99.90;;;;;;4230415;28;20075;-86
2022/11/18 11:00:32;;;;;;;22.10;7.93;;;4.80;99.90;;;;;;4232430;28;20054;-86
2022/11/18 11:02:39;;;;;;;19.53;8.20;;;4.80;99.90;;;;;;4230617;28;20035;-86
2022/11/18 11:04:42;;;;;;;21.25;8.18;;;5.30;99.90;;;;;;4233627;28;20086;-86
2022/11/18 11:06:43;;;;;;;21.95;9.18;;;4.80;99.90;;;;;;4231844;28;20040;-85